Time;durP1;ratioP1;P1;durP2;ratioP2;P2;SDS_P1;SDS_P2;PMS_P1;PMS_P2;Temp;Humidity;BMP_temperature;BMP_pressure;BME280_temperature;BME280_humidity;BME280_pressure;Samples;Min_cycle;Max_cycle;Signal;HPM_P1;HPM_P2
2021/11/07 00:08:03;;;;;;;5.78;3.95;;;8.60;99.90;;;;;;5007158;28;20248;-69
2021/11/07 00:10:21;;;;;;;7.82;4.32;;;8.60;99.90;;;;;;4998478;28;20045;-69
2021/11/07 00:13:10;;;;;;;5.03;3.90;;;8.70;99.90;;;;;;5010756;28;20045;-70
2021/11/07 00:15:42;;;;;;;6.47;3.80;;;8.70;99.90;;;;;;4991027;28;20042;-69
2021/11/07 00:18:18;;;;;;;6.45;3.70;;;8.70;99.90;;;;;;5008811;28;20053;-71
2021/11/07 00:20:53;;;;;;;6.30;4.70;;;8.70;99.90;;;;;;5006826;28;20476;-69
2021/11/07 00:24:11;;;;;;;9.43;4.70;;;8.80;99.90;;;;;;5007448;28;20151;-69
2021/11/07 00:31:49;;;;;;;4.43;4.00;;;8.80;99.90;;;;;;4991947;28;20259;-69
2021/11/07 00:35:01;;;;;;;5.78;4.28;;;8.80;99.90;;;;;;4993116;28;20068;-68
2021/11/07 00:37:47;;;;;;;7.32;3.78;;;8.80;99.90;;;;;;5003557;28;20049;-68
2021/11/07 00:40:31;;;;;;;4.75;3.45;;;8.80;99.90;;;;;;5003906;28;20050;-69
2021/11/07 00:43:08;;;;;;;4.40;3.67;;;8.80;99.90;;;;;;5010068;28;20109;-70
2021/11/07 00:45:56;;;;;;;5.32;3.58;;;8.80;99.90;;;;;;5003760;28;20041;-69
2021/11/07 00:48:41;;;;;;;7.28;3.83;;;8.80;99.90;;;;;;4993536;28;20042;-69
2021/11/07 00:51:42;;;;;;;6.88;4.60;;;8.80;99.90;;;;;;5004244;28;20049;-69
2021/11/07 00:54:43;;;;;;;4.40;3.60;;;8.80;99.90;;;;;;4992811;28;20537;-70
2021/11/07 00:57:20;;;;;;;5.47;4.10;;;8.80;99.90;;;;;;4999582;28;20042;-69
2021/11/07 01:00:00;;;;;;;4.57;3.70;;;8.70;99.90;;;;;;4974876;28;20042;-71
2021/11/07 01:02:35;;;;;;;8.05;3.75;;;8.70;99.90;;;;;;4973714;28;20069;-69
2021/11/07 01:05:21;;;;;;;4.72;3.03;;;8.70;99.90;;;;;;4971177;28;20489;-69
2021/11/07 01:07:57;;;;;;;3.72;2.85;;;8.70;99.90;;;;;;4973922;28;20046;-67
2021/11/07 01:10:30;;;;;;;3.78;3.03;;;8.70;99.90;;;;;;5002839;28;20058;-68
2021/11/07 01:13:15;;;;;;;3.83;3.03;;;8.70;99.90;;;;;;5004998;28;20224;-68
2021/11/07 01:15:48;;;;;;;5.78;3.50;;;8.70;99.90;;;;;;5003988;28;20053;-69
2021/11/07 01:18:27;;;;;;;7.53;3.80;;;8.70;99.90;;;;;;5005820;28;20136;-69
2021/11/07 01:21:01;;;;;;;6.13;3.95;;;8.70;99.90;;;;;;5003525;28;20385;-69
2021/11/07 01:23:40;;;;;;;6.00;3.38;;;8.60;99.90;;;;;;4952980;28;20054;-67
2021/11/07 01:26:20;;;;;;;4.95;3.65;;;8.70;99.90;;;;;;5005517;28;20808;-68
2021/11/07 01:28:56;;;;;;;5.50;3.55;;;8.60;99.90;;;;;;4989208;28;20069;-70
2021/11/07 01:31:25;;;;;;;7.35;4.10;;;8.60;99.90;;;;;;5016790;28;20053;-68
2021/11/07 01:33:55;;;;;;;6.95;3.83;;;8.60;99.90;;;;;;5005066;28;20430;-68
2021/11/07 01:36:31;;;;;;;6.90;3.38;;;8.60;99.90;;;;;;5013190;28;20123;-67
2021/11/07 01:39:08;;;;;;;6.60;3.72;;;8.60;99.90;;;;;;5004992;28;20049;-69
2021/11/07 01:44:17;;;;;;;4.20;3.60;;;8.60;99.90;;;;;;5005225;28;20608;-69
2021/11/07 01:46:51;;;;;;;4.18;3.00;;;8.60;99.90;;;;;;4981109;28;20045;-66
2021/11/07 01:49:25;;;;;;;4.13;3.38;;;8.60;99.90;;;;;;5017265;28;20057;-69
2021/11/07 01:52:00;;;;;;;4.03;3.00;;;8.70;99.90;;;;;;4970637;28;20073;-67
2021/11/07 01:54:35;;;;;;;5.05;2.65;;;8.70;99.90;;;;;;4971040;28;20078;-70
2021/11/07 01:57:09;;;;;;;5.53;3.40;;;8.60;99.90;;;;;;4987426;28;20052;-67
2021/11/07 01:59:46;;;;;;;5.18;3.58;;;8.60;99.90;;;;;;4967460;28;20038;-68
2021/11/07 02:02:23;;;;;;;6.50;3.55;;;8.50;99.90;;;;;;4986034;28;20045;-68
2021/11/07 02:04:51;;;;;;;4.78;4.05;;;8.40;99.90;;;;;;4986581;28;20042;-68
2021/11/07 02:07:22;;;;;;;8.07;3.70;;;8.30;99.90;;;;;;4985907;28;20065;-68
2021/11/07 02:09:50;;;;;;;5.28;3.33;;;8.30;99.90;;;;;;5031500;28;20046;-66
2021/11/07 02:12:17;;;;;;;8.35;4.55;;;8.30;99.90;;;;;;5009137;28;20525;-68
2021/11/07 02:14:46;;;;;;;6.28;3.85;;;8.20;99.90;;;;;;5021483;28;20129;-69
2021/11/07 02:17:15;;;;;;;5.95;3.97;;;8.20;99.90;;;;;;4988384;28;20162;-67
2021/11/07 02:19:47;;;;;;;6.93;4.07;;;8.20;99.90;;;;;;4985517;28;20096;-69
2021/11/07 02:22:15;;;;;;;7.30;3.67;;;8.20;99.90;;;;;;4987649;28;20120;-67
2021/11/07 02:24:46;;;;;;;6.68;3.45;;;8.20;99.90;;;;;;4991930;28;20156;-68
2021/11/07 02:27:14;;;;;;;4.80;2.55;;;8.30;99.90;;;;;;5006731;28;20073;-68
2021/11/07 02:30:00;;;;;;;8.73;2.88;;;8.30;99.90;;;;;;5003392;28;20100;-68
2021/11/07 02:32:29;;;;;;;6.10;2.70;;;8.40;99.90;;;;;;5024120;28;20712;-68
2021/11/07 02:35:07;;;;;;;2.65;2.05;;;8.40;99.90;;;;;;4990481;28;20045;-65
2021/11/07 02:37:35;;;;;;;2.33;2.13;;;8.50;99.90;;;;;;5024001;28;20081;-67
2021/11/07 02:40:08;;;;;;;3.72;2.75;;;8.50;99.90;;;;;;4977682;28;20049;-69
2021/11/07 02:42:43;;;;;;;2.72;2.05;;;8.50;99.90;;;;;;4998662;28;20050;-67
2021/11/07 02:45:17;;;;;;;3.33;1.90;;;8.60;99.90;;;;;;4983752;28;20049;-67
2021/11/07 02:47:54;;;;;;;4.20;2.33;;;8.60;99.90;;;;;;4986176;28;20042;-68
2021/11/07 02:50:29;;;;;;;3.67;2.20;;;8.60;99.90;;;;;;4987682;28;20522;-68
2021/11/07 02:52:59;;;;;;;2.85;2.20;;;8.60;99.90;;;;;;5003558;28;20053;-68
2021/11/07 02:55:27;;;;;;;2.80;1.75;;;8.50;99.90;;;;;;5023449;28;20232;-68
2021/11/07 02:57:59;;;;;;;3.63;2.10;;;8.50;99.90;;;;;;5006143;28;20168;-69
2021/11/07 03:00:31;;;;;;;5.07;1.60;;;8.60;99.90;;;;;;5000283;28;20045;-68
2021/11/07 03:03:01;;;;;;;3.17;1.80;;;8.60;99.90;;;;;;4988127;28;20049;-66
2021/11/07 03:05:34;;;;;;;2.70;2.20;;;8.60;99.90;;;;;;4987158;28;20044;-68
2021/11/07 03:08:03;;;;;;;1.88;1.50;;;8.60;99.90;;;;;;5000618;28;20057;-68
2021/11/07 03:10:37;;;;;;;3.55;2.10;;;8.60;99.90;;;;;;4996182;28;20037;-68
2021/11/07 03:13:20;;;;;;;3.20;2.25;;;8.50;99.90;;;;;;4989622;28;20045;-69
2021/11/07 03:15:49;;;;;;;2.92;2.45;;;8.40;99.90;;;;;;4990577;28;20085;-69
2021/11/07 03:18:24;;;;;;;3.95;2.20;;;8.40;99.90;;;;;;5005781;28;20037;-69
2021/11/07 03:20:56;;;;;;;3.58;1.90;;;8.30;99.90;;;;;;4984036;28;20046;-68
2021/11/07 03:23:30;;;;;;;3.35;2.53;;;8.30;99.90;;;;;;4981819;28;20051;-70
2021/11/07 03:26:20;;;;;;;3.75;2.97;;;8.20;99.90;;;;;;4974036;28;20053;-68
2021/11/07 03:28:51;;;;;;;2.10;1.80;;;8.10;99.90;;;;;;5008104;28;20102;-69
2021/11/07 03:37:08;;;;;;;4.63;3.10;;;8.10;99.90;;;;;;4998923;28;20053;-72
2021/11/07 03:39:40;;;;;;;2.58;2.35;;;8.10;99.90;;;;;;4991010;28;20049;-70
2021/11/07 03:42:20;;;;;;;4.53;2.38;;;8.10;99.90;;;;;;4988222;28;20053;-73
2021/11/07 03:44:49;;;;;;;4.47;2.25;;;8.20;99.90;;;;;;5004564;28;20050;-70
2021/11/07 03:47:25;;;;;;;3.42;2.05;;;8.20;99.90;;;;;;5037627;28;20166;-72
2021/11/07 03:49:59;;;;;;;4.93;2.33;;;8.20;99.90;;;;;;5009084;28;20387;-70
2021/11/07 03:55:30;;;;;;;3.15;2.50;;;8.30;99.90;;;;;;5008323;28;20252;-71
2021/11/07 03:58:00;;;;;;;5.25;1.80;;;8.30;99.90;;;;;;4978401;28;20061;-70
2021/11/07 04:00:28;;;;;;;2.15;1.95;;;8.30;99.90;;;;;;4992821;28;20324;-71
2021/11/07 04:02:57;;;;;;;2.50;2.30;;;8.30;99.90;;;;;;5006284;28;20064;-70
2021/11/07 04:05:25;;;;;;;2.15;1.95;;;8.40;99.90;;;;;;5008912;28;20057;-71
2021/11/07 04:07:59;;;;;;;4.55;2.40;;;8.30;99.90;;;;;;5012295;28;20115;-70
2021/11/07 04:10:58;;;;;;;3.10;2.72;;;8.40;99.90;;;;;;4999923;28;20139;-69
2021/11/07 04:13:54;;;;;;;3.00;2.40;;;8.40;99.90;;;;;;5022409;28;20049;-71
2021/11/07 04:16:37;;;;;;;2.97;2.15;;;8.40;99.90;;;;;;4995383;28;20038;-69
2021/11/07 04:19:09;;;;;;;3.47;2.92;;;8.30;99.90;;;;;;5007776;28;20089;-70
2021/11/07 04:21:49;;;;;;;3.97;3.58;;;8.30;99.90;;;;;;5003489;28;20049;-71
2021/11/07 04:24:25;;;;;;;4.82;3.47;;;8.30;99.90;;;;;;4975932;28;20561;-70
2021/11/07 04:26:58;;;;;;;4.28;3.25;;;8.30;99.90;;;;;;5001190;28;20046;-74
2021/11/07 04:29:31;;;;;;;3.38;3.08;;;8.30;99.90;;;;;;4969963;28;20042;-70
2021/11/07 04:32:18;;;;;;;4.95;3.47;;;8.30;99.90;;;;;;4989248;28;20295;-71
2021/11/07 04:34:50;;;;;;;4.30;3.60;;;8.40;99.90;;;;;;4990256;28;20660;-72
2021/11/07 04:37:32;;;;;;;4.32;3.92;;;8.40;99.90;;;;;;4987747;28;20224;-69
2021/11/07 04:40:00;;;;;;;5.28;4.47;;;8.40;99.90;;;;;;4986669;28;20045;-69
2021/11/07 04:42:31;;;;;;;6.63;4.78;;;8.40;99.90;;;;;;5000057;28;20041;-72
2021/11/07 04:44:59;;;;;;;6.80;5.40;;;8.50;99.90;;;;;;5023980;28;20140;-69
2021/11/07 04:47:30;;;;;;;5.63;4.85;;;8.50;99.90;;;;;;5025501;28;20041;-69
2021/11/07 04:50:02;;;;;;;7.50;4.82;;;8.50;99.90;;;;;;4990958;28;20244;-71
2021/11/07 04:52:48;;;;;;;7.50;5.18;;;8.50;99.90;;;;;;4965716;28;20489;-72
2021/11/07 04:55:16;;;;;;;8.90;4.38;;;8.50;99.90;;;;;;4992760;28;20055;-70
2021/11/07 04:57:54;;;;;;;6.20;5.45;;;8.50;99.90;;;;;;4994673;28;20069;-70
2021/11/07 05:00:25;;;;;;;6.80;5.75;;;8.50;99.90;;;;;;4971242;28;20109;-73
2021/11/07 05:02:57;;;;;;;8.98;7.20;;;8.50;99.90;;;;;;5019677;28;20041;-71
2021/11/07 05:05:25;;;;;;;11.52;7.00;;;8.50;99.90;;;;;;5003177;28;20046;-71
2021/11/07 05:07:53;;;;;;;7.82;6.25;;;8.50;99.90;;;;;;4986450;28;20084;-69
2021/11/07 05:10:20;;;;;;;12.50;7.80;;;8.50;99.90;;;;;;5005194;28;20092;-71
2021/11/07 05:12:49;;;;;;;12.35;6.90;;;8.50;99.90;;;;;;5005487;28;20073;-70
2021/11/07 05:15:30;;;;;;;12.18;8.18;;;8.50;99.90;;;;;;4988078;28;20117;-68
2021/11/07 05:17:59;;;;;;;10.65;8.18;;;8.50;99.90;;;;;;4987385;28;20408;-71
2021/11/07 05:20:39;;;;;;;11.48;8.10;;;8.50;99.90;;;;;;4990310;28;20057;-70
2021/11/07 05:23:19;;;;;;;16.65;9.65;;;8.40;99.90;;;;;;4985382;28;20052;-70
2021/11/07 05:25:51;;;;;;;12.00;9.10;;;8.50;99.90;;;;;;4990929;28;20242;-72
2021/11/07 05:28:24;;;;;;;13.05;8.95;;;8.40;99.90;;;;;;4972306;28;20218;-71
2021/11/07 05:30:56;;;;;;;14.25;10.02;;;8.40;99.90;;;;;;5003309;28;20100;-71
2021/11/07 05:33:50;;;;;;;19.60;11.73;;;8.40;99.90;;;;;;4976736;28;20108;-70
2021/11/07 05:36:20;;;;;;;19.23;12.07;;;8.40;99.90;;;;;;4982153;28;20048;-72
2021/11/07 05:39:14;;;;;;;17.35;11.80;;;8.40;99.90;;;;;;4995574;28;20397;-72
2021/11/07 05:42:11;;;;;;;23.45;13.15;;;8.40;99.90;;;;;;5021746;28;20052;-71
2021/11/07 05:44:50;;;;;;;23.05;13.95;;;8.40;99.90;;;;;;5011108;28;20112;-71
2021/11/07 05:47:19;;;;;;;25.58;14.85;;;8.40;99.90;;;;;;4978739;28;20557;-68
2021/11/07 05:49:58;;;;;;;26.45;15.95;;;8.30;99.90;;;;;;4973379;28;20185;-68
2021/11/07 05:55:27;;;;;;;25.25;15.88;;;8.40;99.90;;;;;;4987835;28;20096;-72
2021/11/07 05:57:57;;;;;;;27.85;18.33;;;8.30;99.90;;;;;;5004147;28;20064;-71
2021/11/07 06:00:36;;;;;;;23.70;15.55;;;8.30;99.90;;;;;;4995017;28;20065;-70
2021/11/07 06:03:30;;;;;;;30.77;18.38;;;8.30;99.90;;;;;;4992711;28;20033;-72
2021/11/07 06:06:12;;;;;;;27.48;18.38;;;8.30;99.90;;;;;;5016926;28;20041;-71
2021/11/07 06:08:43;;;;;;;31.52;20.33;;;8.30;99.90;;;;;;5017612;28;20034;-70
2021/11/07 06:11:22;;;;;;;30.10;19.00;;;8.40;99.90;;;;;;4997889;28;20177;-71
2021/11/07 06:13:57;;;;;;;33.83;20.58;;;8.40;99.90;;;;;;4969989;28;20073;-72
2021/11/07 06:16:38;;;;;;;27.17;16.08;;;8.40;99.90;;;;;;4984896;28;20044;-70
2021/11/07 06:19:06;;;;;;;33.22;21.02;;;8.40;99.90;;;;;;4989722;28;20041;-68
2021/11/07 06:21:35;;;;;;;31.70;19.65;;;8.40;99.90;;;;;;5021838;28;20053;-69
2021/11/07 06:24:07;;;;;;;33.55;22.52;;;8.40;99.90;;;;;;5008143;28;20046;-71
2021/11/07 06:26:38;;;;;;;31.63;18.83;;;8.50;99.90;;;;;;5007912;28;20045;-71
2021/11/07 06:29:09;;;;;;;37.10;23.65;;;8.50;99.90;;;;;;4993832;28;20041;-70
2021/11/07 06:31:36;;;;;;;26.20;17.48;;;8.50;99.90;;;;;;5014821;28;20117;-70
2021/11/07 06:34:17;;;;;;;29.35;20.77;;;8.50;99.90;;;;;;5025870;28;20053;-72
2021/11/07 06:36:45;;;;;;;36.97;23.52;;;8.50;99.90;;;;;;5029204;28;20377;-70
2021/11/07 06:39:14;;;;;;;34.47;23.17;;;8.50;99.90;;;;;;4981797;28;20295;-70
2021/11/07 06:41:53;;;;;;;33.22;19.90;;;8.50;99.90;;;;;;4999351;28;20045;-70
2021/11/07 06:44:21;;;;;;;34.63;23.13;;;8.50;99.90;;;;;;4991240;28;20049;-70
2021/11/07 06:46:48;;;;;;;31.33;21.00;;;8.60;99.90;;;;;;4988268;28;20497;-68
2021/11/07 06:49:18;;;;;;;34.45;21.23;;;8.60;99.90;;;;;;5006231;28;20330;-72
2021/11/07 06:51:51;;;;;;;36.47;21.10;;;8.60;99.90;;;;;;4988971;28;20092;-70
2021/11/07 06:54:24;;;;;;;34.00;21.20;;;8.60;99.90;;;;;;5006007;28;20049;-71
2021/11/07 06:57:06;;;;;;;39.33;24.42;;;8.60;99.90;;;;;;4978831;28;20049;-71
2021/11/07 06:59:38;;;;;;;30.95;19.67;;;8.60;99.90;;;;;;4981843;28;20045;-73
2021/11/07 07:02:06;;;;;;;33.03;20.15;;;8.60;99.90;;;;;;4976083;28;20061;-69
2021/11/07 07:04:38;;;;;;;39.10;22.27;;;8.60;99.90;;;;;;4972715;28;20196;-71
2021/11/07 07:07:14;;;;;;;36.50;20.65;;;8.60;99.90;;;;;;5006276;28;20406;-70
2021/11/07 07:10:12;;;;;;;32.60;18.67;;;8.60;99.90;;;;;;5008822;28;20034;-67
2021/11/07 07:13:08;;;;;;;22.60;14.27;;;8.60;99.90;;;;;;4989442;28;20117;-71
2021/11/07 07:20:00;;;;;;;34.75;20.98;;;8.70;99.90;;;;;;5013319;28;20049;-70
2021/11/07 07:36:03;;;;;;;24.63;13.18;;;8.60;99.90;;;;;;4998475;28;20100;-71
2021/11/07 07:38:45;;;;;;;21.42;11.70;;;8.40;99.90;;;;;;4998708;28;20041;-71
2021/11/07 07:41:23;;;;;;;20.35;11.35;;;8.40;99.90;;;;;;4980500;28;20049;-71
2021/11/07 07:44:08;;;;;;;22.88;11.27;;;8.40;99.90;;;;;;4994603;28;20080;-73
2021/11/07 07:46:44;;;;;;;18.48;10.23;;;8.40;99.90;;;;;;5017155;28;20044;-72
2021/11/07 07:49:19;;;;;;;13.85;8.68;;;8.30;99.90;;;;;;5016950;28;20044;-71
2021/11/07 07:51:51;;;;;;;19.25;8.75;;;8.30;99.90;;;;;;5031156;28;20105;-72
2021/11/07 07:54:27;;;;;;;21.60;8.23;;;8.20;99.90;;;;;;5012651;28;20045;-70
2021/11/07 07:56:57;;;;;;;17.02;6.63;;;8.20;99.90;;;;;;5003218;28;20041;-73
2021/11/07 07:59:26;;;;;;;14.18;7.20;;;8.20;99.90;;;;;;5019215;28;20360;-70
2021/11/07 08:01:58;;;;;;;20.75;8.82;;;8.20;99.90;;;;;;5019656;28;20052;-69
2021/11/07 08:04:31;;;;;;;17.52;8.60;;;8.20;99.90;;;;;;5009865;28;20502;-71
2021/11/07 08:07:08;;;;;;;21.70;8.13;;;8.30;99.90;;;;;;4995255;28;20074;-72
2021/11/07 08:09:58;;;;;;;26.92;7.97;;;8.30;99.90;;;;;;4994533;28;20114;-71
2021/11/07 08:12:29;;;;;;;18.48;7.82;;;8.30;99.90;;;;;;5008802;28;20041;-72
2021/11/07 08:14:57;;;;;;;20.38;7.55;;;8.40;99.90;;;;;;5027402;28;20184;-69
2021/11/07 08:17:27;;;;;;;30.33;8.57;;;8.40;99.90;;;;;;4991905;28;20053;-72
2021/11/07 08:19:55;;;;;;;19.02;6.55;;;8.50;99.90;;;;;;5024157;28;20049;-69
2021/11/07 08:22:30;;;;;;;30.25;8.65;;;8.50;99.90;;;;;;4991062;28;20037;-70
2021/11/07 08:25:09;;;;;;;29.58;7.72;;;8.50;99.90;;;;;;4982912;28;20049;-69
2021/11/07 08:31:03;;;;;;;25.90;8.77;;;8.60;99.90;;;;;;5003276;28;20045;-70
2021/11/07 08:33:35;;;;;;;27.92;10.13;;;8.60;99.90;;;;;;5006918;28;20122;-71
2021/11/07 08:36:14;;;;;;;23.17;9.50;;;8.60;99.90;;;;;;4974074;28;20279;-71
2021/11/07 08:38:49;;;;;;;25.25;10.43;;;8.60;99.90;;;;;;4996161;28;20140;-71
2021/11/07 08:41:19;;;;;;;22.48;11.63;;;8.60;99.90;;;;;;5022921;28;20596;-70
2021/11/07 09:01:43;;;;;;;32.70;19.38;;;8.80;99.90;;;;;;5009722;28;20258;-69
2021/11/07 09:07:17;;;;;;;32.10;18.92;;;8.80;99.90;;;;;;5005664;28;20045;-73
2021/11/07 09:09:47;;;;;;;31.15;20.52;;;8.80;99.90;;;;;;4988328;28;20061;-68
2021/11/07 09:12:36;;;;;;;32.28;20.27;;;8.80;99.90;;;;;;5001602;28;20049;-71
2021/11/07 09:15:15;;;;;;;35.22;18.40;;;8.90;99.90;;;;;;5004090;28;20081;-71
2021/11/07 09:17:45;;;;;;;39.38;20.95;;;8.90;99.90;;;;;;5001418;28;20540;-69
2021/11/07 09:20:41;;;;;;;45.33;23.60;;;8.90;99.90;;;;;;5014466;28;20041;-69
2021/11/07 09:23:41;;;;;;;40.08;22.10;;;8.90;99.90;;;;;;5012898;28;20493;-71
2021/11/07 09:29:04;;;;;;;35.30;21.10;;;9.00;99.90;;;;;;5003394;28;20079;-70
2021/11/07 09:31:43;;;;;;;44.35;21.65;;;9.00;99.90;;;;;;4986311;28;20053;-72
2021/11/07 09:37:30;;;;;;;33.00;19.17;;;9.00;99.90;;;;;;4962514;28;20075;-70
2021/11/07 09:40:04;;;;;;;43.35;21.00;;;9.10;99.90;;;;;;4916142;28;20136;-69
2021/11/07 09:48:25;;;;;;;37.50;18.95;;;9.10;99.90;;;;;;5010990;28;20052;-69
2021/11/07 09:50:59;;;;;;;23.67;16.23;;;9.10;99.90;;;;;;5006952;28;20064;-70
2021/11/07 09:53:30;;;;;;;29.42;17.85;;;9.10;99.90;;;;;;4993540;28;20052;-70
2021/11/07 09:56:03;;;;;;;32.30;17.00;;;9.10;99.90;;;;;;4990385;28;20258;-70
2021/11/07 09:58:32;;;;;;;28.75;16.90;;;9.20;99.90;;;;;;5006625;28;20049;-69
2021/11/07 10:01:04;;;;;;;35.58;18.13;;;9.20;99.90;;;;;;4987064;28;20041;-70
2021/11/07 10:03:40;;;;;;;33.67;15.13;;;9.30;99.90;;;;;;5004194;28;20071;-71
2021/11/07 10:06:49;;;;;;;28.02;16.17;;;9.20;99.90;;;;;;4996329;28;20113;-71
2021/11/07 10:12:17;;;;;;;29.33;15.18;;;9.30;99.90;;;;;;5006769;28;20036;-70
2021/11/07 10:14:59;;;;;;;25.30;14.17;;;9.20;99.90;;;;;;4993407;28;20103;-70
2021/11/07 10:17:36;;;;;;;24.52;12.90;;;9.30;99.90;;;;;;4986781;28;20410;-71
2021/11/07 10:20:16;;;;;;;25.70;11.93;;;9.30;99.90;;;;;;4974470;28;20049;-71
2021/11/07 10:22:58;;;;;;;29.98;11.23;;;9.40;99.90;;;;;;5027287;28;20045;-71
2021/11/07 10:25:37;;;;;;;39.28;13.05;;;9.40;99.90;;;;;;5006661;28;20043;-71
2021/11/07 10:28:25;;;;;;;27.75;11.38;;;9.60;99.90;;;;;;5026303;28;20110;-69
2021/11/07 10:31:09;;;;;;;28.15;10.45;;;9.80;99.90;;;;;;4995118;28;20040;-73
2021/11/07 10:36:56;;;;;;;23.85;7.78;;;9.90;99.90;;;;;;5005224;28;20042;-71
2021/11/07 10:45:22;;;;;;;36.55;10.35;;;9.70;99.90;;;;;;5016373;28;20151;-69
2021/11/07 10:54:20;;;;;;;28.27;7.72;;;9.80;99.90;;;;;;5032866;28;20182;-70
2021/11/07 10:57:14;;;;;;;20.20;6.45;;;9.80;99.90;;;;;;5029763;28;20047;-71
2021/11/07 11:00:10;;;;;;;24.58;7.60;;;9.90;99.90;;;;;;5014757;28;20041;-68
2021/11/07 11:02:48;;;;;;;20.73;6.65;;;9.90;99.90;;;;;;5016538;28;20048;-70
2021/11/07 11:05:36;;;;;;;19.73;6.38;;;9.90;99.90;;;;;;5001933;28;20041;-72
2021/11/07 11:08:18;;;;;;;21.13;6.22;;;9.80;99.90;;;;;;5035005;28;20044;-69
2021/11/07 11:17:11;;;;;;;20.58;6.30;;;10.00;99.90;;;;;;5011936;28;20183;-69
2021/11/07 11:19:59;;;;;;;29.42;7.30;;;9.90;99.90;;;;;;5011550;28;20092;-70
2021/11/07 11:22:54;;;;;;;22.35;7.70;;;10.00;99.90;;;;;;5028364;28;20319;-68
2021/11/07 11:33:51;;;;;;;19.92;5.55;;;10.90;99.90;;;;;;5002845;28;20473;-70
2021/11/07 11:37:09;;;;;;;15.20;6.57;;;10.90;99.90;;;;;;5007703;28;20046;-69
2021/11/07 11:39:57;;;;;;;14.45;5.93;;;10.50;99.90;;;;;;4976721;28;20503;-67
2021/11/07 11:42:35;;;;;;;15.57;4.75;;;10.30;99.90;;;;;;5024971;28;20440;-70
2021/11/07 11:45:09;;;;;;;20.27;7.00;;;10.20;99.90;;;;;;5007527;28;20044;-66
2021/11/07 11:51:20;;;;;;;18.33;5.10;;;10.30;99.90;;;;;;5005291;28;20059;-69
2021/11/07 12:02:45;;;;;;;25.05;5.78;;;10.60;99.90;;;;;;4957192;28;20044;-68
2021/11/07 12:08:11;;;;;;;18.40;5.40;;;10.50;99.90;;;;;;5015679;28;20061;-68
2021/11/07 12:10:53;;;;;;;16.45;5.25;;;10.50;99.90;;;;;;4989899;28;20095;-71
2021/11/07 12:13:54;;;;;;;23.35;5.97;;;10.60;99.90;;;;;;5012486;28;20073;-69
2021/11/07 12:16:58;;;;;;;12.55;4.75;;;10.40;99.90;;;;;;4979929;28;20041;-70
2021/11/07 12:19:46;;;;;;;11.75;4.72;;;10.30;99.90;;;;;;5028691;28;20121;-70
2021/11/07 12:22:31;;;;;;;16.45;4.32;;;10.40;99.90;;;;;;4983222;28;20099;-70
2021/11/07 12:25:10;;;;;;;14.77;5.40;;;10.40;99.90;;;;;;4996781;28;20407;-69
2021/11/07 12:27:54;;;;;;;13.07;4.43;;;10.50;99.90;;;;;;4999192;28;20067;-68
2021/11/07 12:30:28;;;;;;;14.07;5.68;;;10.60;99.90;;;;;;4994917;28;20095;-69
2021/11/07 12:33:23;;;;;;;15.15;5.70;;;10.70;99.90;;;;;;5010610;28;20041;-70
2021/11/07 12:41:41;;;;;;;13.27;5.03;;;10.30;99.90;;;;;;5005795;28;20290;-66
2021/11/07 12:44:29;;;;;;;13.13;5.35;;;10.20;99.90;;;;;;4986228;28;20088;-69
2021/11/07 12:47:05;;;;;;;16.20;5.88;;;10.10;99.90;;;;;;4993552;28;20044;-67
2021/11/07 12:49:58;;;;;;;16.83;5.13;;;9.90;99.90;;;;;;4973820;28;20096;-68
2021/11/07 12:52:27;;;;;;;13.10;4.88;;;9.80;99.90;;;;;;4995481;28;21185;-71
2021/11/07 12:55:24;;;;;;;13.25;5.57;;;9.70;99.90;;;;;;5032641;28;20608;-68
2021/11/07 12:57:57;;;;;;;20.17;5.95;;;9.70;99.90;;;;;;5015768;28;20041;-69
2021/11/07 13:00:57;;;;;;;17.33;4.60;;;9.70;99.90;;;;;;5028404;28;20072;-69
2021/11/07 13:03:37;;;;;;;21.85;5.53;;;9.60;99.90;;;;;;5006872;28;20049;-69
2021/11/07 13:06:13;;;;;;;14.45;4.65;;;9.60;99.90;;;;;;5025935;28;20164;-68
2021/11/07 13:08:49;;;;;;;20.10;5.50;;;9.70;99.90;;;;;;5023185;23;20050;-71
2021/11/07 13:11:23;;;;;;;14.55;4.70;;;9.70;99.90;;;;;;4988734;28;20041;-70
2021/11/07 13:14:03;;;;;;;21.63;5.03;;;9.70;99.90;;;;;;5020916;28;20111;-70
2021/11/07 13:16:52;;;;;;;21.15;4.65;;;9.60;99.90;;;;;;5006193;28;20057;-70
2021/11/07 13:19:41;;;;;;;15.48;4.45;;;9.70;99.90;;;;;;5005349;28;20053;-70
2021/11/07 13:22:49;;;;;;;13.80;4.95;;;9.80;99.90;;;;;;5022839;28;20135;-70
2021/11/07 13:25:21;;;;;;;12.77;4.47;;;9.80;99.90;;;;;;4979718;28;20058;-70
2021/11/07 13:27:51;;;;;;;18.83;5.40;;;9.80;99.90;;;;;;4992140;28;20049;-70
2021/11/07 13:30:20;;;;;;;19.15;5.55;;;9.80;99.90;;;;;;5004675;28;20119;-69
2021/11/07 13:32:47;;;;;;;18.00;5.78;;;9.80;99.90;;;;;;5004071;28;20063;-70
2021/11/07 13:35:24;;;;;;;15.98;4.88;;;9.70;99.90;;;;;;5023673;28;20095;-70
2021/11/07 13:38:05;;;;;;;17.38;4.68;;;9.70;99.90;;;;;;4990249;28;20049;-70
2021/11/07 13:40:37;;;;;;;13.38;4.78;;;9.70;99.90;;;;;;5021372;28;20158;-69
2021/11/07 13:43:15;;;;;;;15.68;4.20;;;9.60;99.90;;;;;;5024533;28;20042;-70
2021/11/07 13:45:45;;;;;;;18.23;4.97;;;9.60;99.90;;;;;;5005740;28;20496;-70
2021/11/07 13:48:25;;;;;;;18.65;4.05;;;9.50;99.90;;;;;;4988498;28;20046;-70
2021/11/07 13:50:53;;;;;;;7.68;4.53;;;9.40;99.90;;;;;;5023862;28;20111;-70
2021/11/07 13:53:21;;;;;;;6.85;3.08;;;9.30;99.90;;;;;;5006268;28;20491;-70
2021/11/07 13:55:55;;;;;;;10.52;4.20;;;9.10;99.90;;;;;;5023007;28;20132;-70
2021/11/07 13:58:26;;;;;;;9.63;3.75;;;9.00;99.90;;;;;;5019971;28;20092;-70
2021/11/07 14:00:56;;;;;;;12.10;3.72;;;8.80;99.90;;;;;;5004157;28;20049;-70
2021/11/07 14:03:24;;;;;;;12.68;3.75;;;8.70;99.90;;;;;;5005269;28;20056;-70
2021/11/07 14:06:05;;;;;;;8.07;3.25;;;8.70;99.90;;;;;;4989372;28;20214;-69
2021/11/07 14:08:44;;;;;;;10.85;4.28;;;8.60;99.90;;;;;;5005033;28;20455;-70
2021/11/07 14:11:18;;;;;;;8.50;2.90;;;8.60;99.90;;;;;;5003845;28;20129;-70
2021/11/07 14:13:49;;;;;;;9.70;3.17;;;8.70;99.90;;;;;;5005670;28;20507;-70
2021/11/07 14:16:32;;;;;;;12.77;3.28;;;8.80;99.90;;;;;;4988865;28;20111;-70
2021/11/07 14:19:04;;;;;;;12.32;3.35;;;8.70;99.90;;;;;;5021837;28;20132;-70
2021/11/07 14:21:32;;;;;;;14.27;3.35;;;8.60;99.90;;;;;;5022933;28;20068;-70
2021/11/07 14:24:09;;;;;;;12.73;2.88;;;8.60;99.90;;;;;;5023625;28;20414;-70
2021/11/07 14:29:22;;;;;;;10.25;3.08;;;8.50;99.90;;;;;;5003917;28;20053;-70
2021/11/07 14:32:06;;;;;;;12.32;3.80;;;8.50;99.90;;;;;;5003429;28;20053;-70
2021/11/07 14:42:28;;;;;;;17.20;3.35;;;8.30;99.90;;;;;;5004576;28;20057;-70
2021/11/07 14:53:28;;;;;;;22.55;5.10;;;8.30;99.90;;;;;;5023391;28;20053;-69
2021/11/07 14:59:11;;;;;;;12.82;3.90;;;8.30;99.90;;;;;;4976902;28;20375;-70
2021/11/07 15:01:42;;;;;;;14.48;5.15;;;8.30;99.90;;;;;;5019977;28;20131;-70
2021/11/07 15:06:42;;;;;;;23.77;5.50;;;8.10;99.90;;;;;;5020857;28;20076;-71
2021/11/07 15:09:20;;;;;;;20.08;5.10;;;8.10;99.90;;;;;;5015900;28;20518;-70
2021/11/07 15:12:41;;;;;;;19.13;3.92;;;8.00;99.90;;;;;;5021527;28;20111;-70
2021/11/07 15:17:53;;;;;;;21.92;4.22;;;7.80;99.90;;;;;;5017147;28;20123;-70
2021/11/07 15:22:56;;;;;;;11.73;3.45;;;7.80;99.90;;;;;;5008560;28;20111;-70
2021/11/07 15:25:29;;;;;;;14.48;4.70;;;7.70;99.90;;;;;;5026582;28;20111;-70
2021/11/07 15:28:00;;;;;;;18.27;3.85;;;7.70;99.90;;;;;;5008797;28;20511;-70
2021/11/07 15:30:26;;;;;;;18.92;4.72;;;7.70;99.90;;;;;;5022738;28;20046;-70
2021/11/07 15:32:53;;;;;;;17.80;4.22;;;7.80;99.90;;;;;;4993008;28;20496;-70
2021/11/07 15:35:23;;;;;;;31.45;5.13;;;7.80;99.90;;;;;;4988482;28;20053;-70
2021/11/07 15:37:52;;;;;;;20.77;6.55;;;7.80;99.90;;;;;;5025594;28;20111;-70
2021/11/07 15:40:30;;;;;;;22.90;6.65;;;7.80;99.90;;;;;;5004717;28;20056;-70
2021/11/07 15:42:57;;;;;;;22.85;7.40;;;7.80;99.90;;;;;;5019184;28;20057;-71
2021/11/07 15:45:25;;;;;;;18.95;7.15;;;7.70;99.90;;;;;;5006061;28;20054;-70
2021/11/07 15:47:57;;;;;;;17.85;6.75;;;7.70;99.90;;;;;;5006553;28;20464;-70
2021/11/07 15:50:45;;;;;;;15.75;4.80;;;7.60;99.90;;;;;;5004079;28;20107;-69
2021/11/07 15:53:28;;;;;;;27.35;5.70;;;7.70;99.90;;;;;;4955778;28;20084;-70
2021/11/07 15:56:08;;;;;;;12.15;2.10;;;7.70;99.90;;;;;;4983401;28;20108;-69
2021/11/07 16:03:53;;;;;;;15.77;2.90;;;7.00;99.90;;;;;;5014967;28;20519;-69
2021/11/07 16:06:34;;;;;;;16.50;3.08;;;6.90;99.90;;;;;;5024681;28;20135;-68
2021/11/07 16:09:15;;;;;;;14.93;2.58;;;6.80;99.90;;;;;;4997456;28;20049;-69
2021/11/07 16:11:55;;;;;;;13.73;2.22;;;6.80;99.90;;;;;;5004536;28;20100;-69
2021/11/07 16:16:59;;;;;;;22.60;5.00;;;6.60;99.90;;;;;;4987998;28;20166;-69
2021/11/07 16:19:30;;;;;;;13.80;2.83;;;6.60;99.90;;;;;;5008614;28;20111;-70
2021/11/07 16:21:57;;;;;;;15.10;3.50;;;6.50;99.90;;;;;;4986804;28;20054;-68
2021/11/07 16:24:28;;;;;;;22.50;3.70;;;6.50;99.90;;;;;;4988149;28;20118;-69
2021/11/07 16:26:57;;;;;;;15.68;3.35;;;6.50;99.90;;;;;;5004469;28;20050;-70
2021/11/07 16:29:27;;;;;;;17.40;6.70;;;6.50;99.90;;;;;;4981553;28;20140;-71